Cold Spring, NJ

12:00 AM EST on January 18, 2017 (GMT -0500)
MC3422 | | Change Station

Elev 19 ft 38.96 °N, 74.93 °W | Updated 34 minutes ago

Overcast
Overcast
49.0 °F
Feels Like 49.0 °F
N
1.0
Wind Variable Wind from SE
Gusts 0.0 mph

Today
High -- | Low -- °F
--% Chance of Precip.
Yesterday
High -- | Low -- °F
Precip. -- in
Pressure 29.88 in
Visibility 0.5 miles
Clouds
Dew Point 46.0 °F
Humidity 91%
Rainfall 0.21 in
Snow Depth Not available.
7:15 AM 5:05 PM
Waning Gibbous, 66% visible
METAR KMIV 180454Z AUTO 13003KT 1/2SM FG VV003 07/07 A2988 RMK AO2 PRESFR SLP119 T00720072 400720011
Pressure 29.88 in
Visibility 0.5 miles
Clouds
Dew Point 46.0 °F
Humidity 91%
Rainfall 0.21 in
Snow Depth Not available.
7:15 AM 5:05 PM
Waning Gibbous, 66% visible
METAR KMIV 180454Z AUTO 13003KT 1/2SM FG VV003 07/07 A2988 RMK AO2 PRESFR SLP119 T00720072 400720011

Get Your Daily Forecast Email!

Thanks for signing up!

Be on the lookout for a verification email in your inbox.

You'll start receiving the daily forecast at 8 AM.

×

10-Day Weather Forecast

Almanac

Astronomy

Jan. 18, 2017 Rise Set
Actual Time
Civil Twilight
Nautical Twilight
Astronomical Twilight
Moon
Length of Visible Light
Length of Day
Tomorrow will be .
, % of the Moon is Illuminated

Today's Extremes

State Highs State Lows

Community

WunderPhotos

Upload Photos

1,962,540 photos uploaded!

WunderBlog® & News

Nearby

Air Quality

  Air Quality AQ Index Pollutant
Not available.

Snow Depth

Station Depth Elevation

Earthquake Activity

City Distance Mag. Time & Date
Minimum magnitude displayed is 2.5.

Coastal Water Temperatures

Place Temperature

Stations

Nearby Weather Stations

Station Location Temp. Windchill Dew Point Humidity Wind Precip. Elev Updated Type
                   

Watches & Warnings

There are currently no watches in effect.